createdAt,value
2018-08-23T00:08:58.607Z,22.70
2018-08-23T00:13:10.880Z,22.70
2018-08-23T00:17:21.951Z,22.70
2018-08-23T00:21:48.826Z,22.60
2018-08-23T00:26:07.452Z,22.60
2018-08-23T00:30:13.079Z,22.50
2018-08-23T00:34:16.463Z,22.50
2018-08-23T00:46:30.159Z,22.40
2018-08-23T00:50:50.561Z,22.40
2018-08-23T00:54:56.531Z,22.30
2018-08-23T00:59:00.445Z,22.30
2018-08-23T01:03:04.996Z,22.20
2018-08-23T01:07:08.339Z,22.20
2018-08-23T01:11:11.837Z,22.20
2018-08-23T01:15:15.160Z,22.10
2018-08-23T01:19:23.892Z,22.10
2018-08-23T01:23:27.272Z,22.00
2018-08-23T01:27:35.912Z,22.00
2018-08-23T01:31:39.240Z,21.90
2018-08-23T01:35:44.928Z,21.80
2018-08-23T01:39:48.276Z,21.80
2018-08-23T01:43:51.616Z,21.70
2018-08-23T01:47:55.893Z,21.70
2018-08-23T01:52:01.153Z,21.70
2018-08-23T01:56:08.516Z,21.60
2018-08-23T02:00:12.675Z,21.50
2018-08-23T02:04:17.065Z,21.50
2018-08-23T02:08:20.403Z,21.50
2018-08-23T02:12:24.488Z,21.40
2018-08-23T02:16:42.435Z,21.40
2018-08-23T02:20:49.678Z,21.30
2018-08-23T02:24:53.041Z,21.30
2018-08-23T02:28:56.381Z,21.20
2018-08-23T02:32:59.758Z,21.20
2018-08-23T02:37:03.109Z,21.10
2018-08-23T02:41:06.465Z,21.00
2018-08-23T02:45:14.832Z,21.00
2018-08-23T02:49:18.184Z,20.90
2018-08-23T02:53:52.220Z,20.90
2018-08-23T02:57:59.815Z,20.80
2018-08-23T03:02:03.201Z,20.70
2018-08-23T03:06:07.160Z,20.70
2018-08-23T03:10:10.509Z,20.60
2018-08-23T03:14:13.968Z,20.50
2018-08-23T03:18:17.241Z,20.50
2018-08-23T03:22:20.588Z,20.40
2018-08-23T03:26:23.941Z,20.40
2018-08-23T03:30:27.285Z,20.30
2018-08-23T03:34:30.703Z,20.20
2018-08-23T03:38:38.017Z,20.20
2018-08-23T03:42:41.419Z,20.10
2018-08-23T03:47:01.020Z,20.10
2018-08-23T03:51:04.360Z,20.00
2018-08-23T03:55:10.428Z,20.00
2018-08-23T03:59:13.793Z,19.90
2018-08-23T04:03:19.850Z,19.80
2018-08-23T04:07:23.200Z,19.80
2018-08-23T04:11:30.841Z,19.70
2018-08-23T04:15:34.176Z,19.70
2018-08-23T04:19:41.972Z,19.60
2018-08-23T04:23:49.512Z,19.60
2018-08-23T04:27:52.856Z,19.50
2018-08-23T04:31:56.218Z,19.50
2018-08-23T04:35:59.575Z,19.40
2018-08-23T04:40:04.890Z,19.40
2018-08-23T04:44:11.071Z,19.40
2018-08-23T04:48:14.619Z,19.40
2018-08-23T04:52:18.410Z,19.40
2018-08-23T04:56:21.753Z,19.30
2018-08-23T05:00:25.588Z,19.30
2018-08-23T05:04:28.931Z,19.30
2018-08-23T05:08:32.244Z,19.20
2018-08-23T05:12:35.608Z,19.20
2018-08-23T05:16:38.948Z,19.20
2018-08-23T05:20:42.396Z,19.20
2018-08-23T05:24:45.760Z,19.20
2018-08-23T05:29:01.457Z,19.20
2018-08-23T05:33:10.941Z,19.20
2018-08-23T05:37:14.329Z,19.20
2018-08-23T05:41:19.084Z,19.20
2018-08-23T05:45:28.325Z,19.30
2018-08-23T05:49:31.641Z,19.30
2018-08-23T05:53:40.575Z,19.30
2018-08-23T05:57:43.936Z,19.40
2018-08-23T06:01:48.027Z,19.40
2018-08-23T06:05:51.707Z,19.50
2018-08-23T06:09:55.125Z,19.60
2018-08-23T06:13:58.517Z,19.60
2018-08-23T06:18:01.872Z,19.70
2018-08-23T06:22:05.301Z,19.80
2018-08-23T06:26:09.572Z,19.90
2018-08-23T06:30:12.957Z,20.00
2018-08-23T06:34:16.326Z,20.10
2018-08-23T06:38:19.686Z,20.20
2018-08-23T06:42:38.582Z,20.30
2018-08-23T06:46:41.949Z,20.40
2018-08-23T06:50:50.716Z,20.50
2018-08-23T06:54:54.079Z,20.70
2018-08-23T06:58:57.541Z,20.80
2018-08-23T07:03:00.965Z,20.90
2018-08-23T07:07:04.651Z,21.10
2018-08-23T07:11:13.438Z,21.20
2018-08-23T07:15:16.848Z,21.40
2018-08-23T07:19:32.214Z,21.60
2018-08-23T07:23:36.560Z,21.70
2018-08-23T07:27:39.944Z,21.80
2018-08-23T07:31:55.217Z,22.10
2018-08-23T07:36:14.932Z,22.30
2018-08-23T07:40:21.518Z,22.50
2018-08-23T07:44:24.868Z,22.70
2018-08-23T07:48:28.203Z,22.90
2018-08-23T07:52:32.671Z,23.10
2018-08-23T07:56:36.851Z,23.20
2018-08-23T08:00:41.291Z,23.50
2018-08-23T08:04:44.639Z,23.70
2018-08-23T08:08:48.013Z,23.80
2018-08-23T08:12:52.343Z,23.90
2018-08-23T08:17:01.371Z,24.00
2018-08-23T08:21:07.161Z,24.10
2018-08-23T08:25:17.596Z,24.20
2018-08-23T08:29:26.244Z,24.20
2018-08-23T08:33:34.355Z,24.30
2018-08-23T08:37:37.687Z,24.30
2018-08-23T08:41:41.008Z,24.40
2018-08-23T08:45:44.380Z,24.40
2018-08-23T08:49:47.724Z,24.50
2018-08-23T08:53:51.676Z,24.60
2018-08-23T08:57:55.041Z,24.70
2018-08-23T09:01:58.980Z,24.70
2018-08-23T09:06:04.361Z,24.80
2018-08-23T09:10:07.703Z,24.90
2018-08-23T09:14:11.088Z,25.00
2018-08-23T09:18:14.520Z,25.00
2018-08-23T09:22:19.738Z,25.20
2018-08-23T09:26:27.327Z,25.40
2018-08-23T09:30:31.943Z,25.60
2018-08-23T09:34:35.279Z,25.90
2018-08-23T09:38:38.667Z,26.20
2018-08-23T09:42:41.996Z,26.50
2018-08-23T09:46:51.795Z,26.70
2018-08-23T09:50:55.138Z,26.90
2018-08-23T09:54:58.603Z,27.10
2018-08-23T09:59:01.956Z,27.20
2018-08-23T10:03:12.032Z,27.40
2018-08-23T10:07:22.541Z,27.50
2018-08-23T10:11:34.588Z,27.80
2018-08-23T10:15:48.935Z,27.90
2018-08-23T10:19:57.659Z,28.10
2018-08-23T10:24:14.776Z,28.20
2018-08-23T10:28:20.331Z,28.30
2018-08-23T10:32:23.751Z,28.50
2018-08-23T10:36:27.047Z,28.50
2018-08-23T10:40:30.423Z,28.60
2018-08-23T10:44:33.809Z,28.70
2018-08-23T10:48:37.119Z,28.80
2018-08-23T10:52:40.499Z,28.90
2018-08-23T10:56:43.844Z,29.00
2018-08-23T11:00:47.253Z,29.10
2018-08-23T11:04:50.600Z,29.30
2018-08-23T11:09:00.285Z,29.40
2018-08-23T11:13:09.113Z,29.40
2018-08-23T11:17:19.241Z,29.50
2018-08-23T11:21:22.643Z,29.50
2018-08-23T11:25:26.228Z,29.60
2018-08-23T11:29:29.609Z,29.70
2018-08-23T11:33:32.968Z,29.70
2018-08-23T11:37:36.352Z,29.80
2018-08-23T11:41:39.700Z,29.70
2018-08-23T11:45:43.076Z,29.80
2018-08-23T11:49:46.442Z,29.70
2018-08-23T11:53:49.803Z,29.80
2018-08-23T11:57:53.253Z,29.90
2018-08-23T12:01:56.621Z,30.10
2018-08-23T12:05:59.944Z,30.20
2018-08-23T12:10:03.350Z,30.30
2018-08-23T12:14:06.676Z,30.50
2018-08-23T12:18:10.059Z,30.60
2018-08-23T12:22:13.448Z,30.70
2018-08-23T12:26:17.448Z,30.80
2018-08-23T12:30:21.133Z,30.70
2018-08-23T12:34:31.706Z,30.70
2018-08-23T12:38:40.427Z,30.70
2018-08-23T12:42:50.372Z,30.70
2018-08-23T12:46:59.064Z,30.70
2018-08-23T12:51:02.428Z,30.80
2018-08-23T12:55:05.814Z,30.90
2018-08-23T12:59:09.179Z,30.90
2018-08-23T13:03:12.561Z,31.00
2018-08-23T13:07:15.855Z,31.00
2018-08-23T13:11:19.266Z,31.10
2018-08-23T13:15:22.620Z,31.20
2018-08-23T13:19:25.985Z,31.20
2018-08-23T13:23:29.364Z,31.20
2018-08-23T13:27:32.819Z,31.20
2018-08-23T13:31:36.188Z,31.20
2018-08-23T13:35:39.551Z,31.30
2018-08-23T13:39:45.548Z,31.20
2018-08-23T13:43:48.894Z,31.20
2018-08-23T13:47:52.232Z,31.30
2018-08-23T13:51:55.629Z,31.30
2018-08-23T13:55:58.960Z,31.30
2018-08-23T14:00:02.319Z,31.30
2018-08-23T14:04:05.785Z,31.20
2018-08-23T14:08:09.559Z,31.20
2018-08-23T14:12:12.932Z,31.20
2018-08-23T14:16:16.276Z,31.20
2018-08-23T14:20:19.648Z,31.20
2018-08-23T14:24:22.999Z,31.20
2018-08-23T14:28:26.380Z,31.20
2018-08-23T14:32:29.823Z,31.30
2018-08-23T14:36:33.167Z,31.30
2018-08-23T14:40:36.544Z,31.30
2018-08-23T14:44:39.892Z,31.40
2018-08-23T14:48:43.211Z,31.40
2018-08-23T14:52:46.547Z,31.40
2018-08-23T14:56:55.324Z,31.40
2018-08-23T15:00:58.732Z,31.40
2018-08-23T15:05:03.200Z,31.40
2018-08-23T15:09:07.729Z,31.40
2018-08-23T15:13:11.092Z,31.30
2018-08-23T15:17:14.435Z,31.30
2018-08-23T15:21:17.853Z,31.30
2018-08-23T15:25:21.183Z,31.30
2018-08-23T15:29:24.510Z,31.30
2018-08-23T15:33:27.891Z,31.40
2018-08-23T15:37:31.236Z,31.40
2018-08-23T15:41:34.568Z,31.40
2018-08-23T15:45:37.899Z,31.40
2018-08-23T15:49:41.268Z,31.50
2018-08-23T15:53:44.621Z,31.50
2018-08-23T15:57:47.966Z,31.60
2018-08-23T16:01:51.343Z,31.70
2018-08-23T16:05:54.705Z,31.70
2018-08-23T16:09:58.180Z,31.70
2018-08-23T16:14:01.555Z,31.70
2018-08-23T16:18:10.251Z,31.60
2018-08-23T16:22:13.593Z,31.60
2018-08-23T16:26:16.926Z,31.70
2018-08-23T16:30:20.396Z,31.60
2018-08-23T16:34:23.743Z,31.50
2018-08-23T16:38:27.069Z,31.40
2018-08-23T16:42:30.951Z,31.20
2018-08-23T16:46:34.293Z,31.20
2018-08-23T16:50:37.611Z,31.10
2018-08-23T16:54:40.959Z,31.10
2018-08-23T16:58:45.057Z,30.90
2018-08-23T17:02:48.409Z,30.80
2018-08-23T17:06:51.763Z,30.70
2018-08-23T17:10:55.098Z,30.60
2018-08-23T17:14:58.964Z,30.50
2018-08-23T17:19:02.736Z,30.30
2018-08-23T17:23:06.239Z,30.20
2018-08-23T17:27:09.523Z,30.00
2018-08-23T17:31:12.963Z,29.80
2018-08-23T17:35:16.311Z,29.60
2018-08-23T17:39:19.689Z,29.50
2018-08-23T17:43:25.655Z,29.30
2018-08-23T17:47:29.439Z,29.20
2018-08-23T17:51:32.816Z,29.00
2018-08-23T17:55:36.229Z,28.90
2018-08-23T17:59:39.594Z,28.70
2018-08-23T18:03:45.639Z,28.60
2018-08-23T18:07:48.980Z,28.50
2018-08-23T18:11:52.324Z,28.40
2018-08-23T18:16:00.992Z,28.30
2018-08-23T18:20:04.422Z,28.10
2018-08-23T18:24:07.803Z,28.00
2018-08-23T18:28:14.035Z,27.80
2018-08-23T18:32:18.319Z,27.60
2018-08-23T18:36:21.574Z,27.50
2018-08-23T18:40:24.994Z,27.30
2018-08-23T18:44:28.323Z,27.10
2018-08-23T18:48:31.931Z,27.00
2018-08-23T18:52:35.279Z,26.90
2018-08-23T18:56:38.642Z,26.70
2018-08-23T19:00:42.005Z,26.60
2018-08-23T19:04:45.359Z,26.40
2018-08-23T19:08:48.699Z,26.30
2018-08-23T19:12:52.136Z,26.20
2018-08-23T19:17:00.780Z,26.00
2018-08-23T19:21:08.532Z,25.90
2018-08-23T19:25:11.935Z,25.80
2018-08-23T19:29:15.278Z,25.70
2018-08-23T19:33:18.639Z,25.50
2018-08-23T19:37:22.103Z,25.40
2018-08-23T19:41:25.611Z,25.30
2018-08-23T19:45:33.180Z,25.10
2018-08-23T19:49:41.885Z,25.00
2018-08-23T19:53:45.259Z,24.90
2018-08-23T19:57:48.591Z,24.80
2018-08-23T20:01:52.028Z,24.70
2018-08-23T20:05:55.368Z,24.60
2018-08-23T20:09:58.715Z,24.40
2018-08-23T20:14:02.109Z,24.40
2018-08-23T20:18:05.566Z,24.30
2018-08-23T20:22:09.278Z,24.20
2018-08-23T20:26:12.640Z,24.10
2018-08-23T20:30:16.010Z,24.00
2018-08-23T20:34:19.453Z,24.00
2018-08-23T20:38:22.875Z,23.90
2018-08-23T20:42:26.220Z,23.80
2018-08-23T20:46:29.556Z,23.70
2018-08-23T20:50:35.897Z,23.60
2018-08-23T20:54:39.291Z,23.60
2018-08-23T20:58:42.629Z,23.50
2018-08-23T21:02:46.040Z,23.40
2018-08-23T21:06:56.763Z,23.40
2018-08-23T21:11:00.657Z,23.30
2018-08-23T21:15:04.035Z,23.20
2018-08-23T21:19:07.459Z,23.10
2018-08-23T21:23:10.800Z,23.00
2018-08-23T21:27:14.176Z,22.90
2018-08-23T21:31:17.993Z,22.90
2018-08-23T21:35:21.359Z,22.80
2018-08-23T21:39:26.947Z,22.70
2018-08-23T21:43:30.250Z,22.60
2018-08-23T21:51:36.730Z,22.50
2018-08-23T21:55:40.219Z,22.40
2018-08-23T21:59:43.554Z,22.40
2018-08-23T22:03:46.911Z,22.30
2018-08-23T22:07:50.257Z,22.30
2018-08-23T22:11:58.326Z,22.30
2018-08-23T22:16:01.924Z,22.30
2018-08-23T22:20:05.306Z,22.20
2018-08-23T22:24:08.637Z,22.20
2018-08-23T22:28:12.093Z,22.20
2018-08-23T22:32:15.435Z,22.10
2018-08-23T22:36:19.224Z,22.10
2018-08-23T22:40:22.692Z,22.00
2018-08-23T22:44:26.122Z,22.00
2018-08-23T22:48:32.034Z,22.00
2018-08-23T22:52:35.388Z,21.90
2018-08-23T22:56:38.811Z,21.90
2018-08-23T23:08:48.938Z,21.70
2018-08-23T23:12:52.280Z,21.70
2018-08-23T23:16:55.815Z,21.60
2018-08-23T23:20:59.185Z,21.60
2018-08-23T23:25:03.252Z,21.60
2018-08-23T23:29:07.084Z,21.50
2018-08-23T23:33:14.918Z,21.50
2018-08-23T23:37:18.250Z,21.50
2018-08-23T23:41:21.604Z,21.40
2018-08-23T23:45:24.967Z,21.40
2018-08-23T23:49:28.303Z,21.40
2018-08-23T23:53:35.500Z,21.40
2018-08-23T23:57:38.833Z,21.40
